Terminal Aerodrome Forecast
Issued by NWS

Home | Current Version | Previous Version | Text Only | Print | Product List | Glossary On
Versions: 1 2 3 4 5 6 7 8 9 10 11 12 13 14 15 16 17 18 19 20 21 22 23 24 25 26 27 28 29
000
FTUS44 KOHX 040700 AAB
TAFCKV
TAF AMD
KCKV 040723Z 0407/0506 35005KT P6SM -RA FEW006 BKN020 OVC030
     FM040800 30010KT 3SM -RA BR OVC007
     FM041300 35010KT 2SM -RA BR OVC003
     FM042100 36015G22KT 2SM PL BR OVC003
     FM050300 36015G22KT 1/2SM SN FG OVC003=

USA.gov is the U.S. government's official web portal to all federal, state and local government web resources and services.